createdAt,value
2023-05-18T00:00:55.091Z,82.51
2023-05-18T00:01:55.082Z,82.99
2023-05-18T00:02:55.129Z,82.62
2023-05-18T00:03:55.211Z,83.07
2023-05-18T00:04:55.291Z,83.55
2023-05-18T00:05:55.038Z,83.28
2023-05-18T00:06:55.025Z,83.37
2023-05-18T00:07:55.017Z,84.38
2023-05-18T00:08:55.000Z,84.10
2023-05-18T00:09:55.036Z,84.31
2023-05-18T00:10:54.977Z,84.04
2023-05-18T00:11:54.979Z,83.44
2023-05-18T00:12:54.981Z,83.17
2023-05-18T00:13:54.953Z,82.93
2023-05-18T00:14:54.943Z,83.48
2023-05-18T00:15:54.939Z,83.83
2023-05-18T00:16:54.914Z,83.63
2023-05-18T00:17:54.951Z,84.31
2023-05-18T00:18:54.945Z,84.49
2023-05-18T00:19:54.890Z,84.25
2023-05-18T00:20:54.875Z,84.70
2023-05-18T00:21:54.866Z,85.07
2023-05-18T00:22:54.877Z,85.73
2023-05-18T00:23:54.846Z,85.94
2023-05-18T00:24:54.843Z,85.73
2023-05-18T00:25:54.822Z,85.81
2023-05-18T00:26:54.814Z,86.10
2023-05-18T00:27:54.811Z,86.09
2023-05-18T00:28:54.823Z,86.49
2023-05-18T00:29:54.784Z,86.93
2023-05-18T00:30:54.781Z,85.90
2023-05-18T00:31:54.783Z,85.98
2023-05-18T00:32:54.791Z,86.70
2023-05-18T00:33:54.742Z,86.95
2023-05-18T00:34:54.726Z,86.87
2023-05-18T00:35:54.726Z,87.32
2023-05-18T00:36:54.716Z,87.53
2023-05-18T00:37:54.703Z,87.64
2023-05-18T00:38:54.696Z,87.86
2023-05-18T00:39:54.686Z,88.11
2023-05-18T00:40:54.668Z,88.75
2023-05-18T00:41:54.659Z,88.98
2023-05-18T00:42:54.646Z,88.29
2023-05-18T00:43:54.641Z,88.29
2023-05-18T00:44:54.656Z,88.84
2023-05-18T00:45:54.669Z,88.19
2023-05-18T00:46:54.603Z,88.65
2023-05-18T00:47:54.615Z,89.08
2023-05-18T00:48:54.585Z,89.68
2023-05-18T00:49:54.579Z,89.64
2023-05-18T00:50:54.560Z,90.26
2023-05-18T00:51:54.553Z,89.50
2023-05-18T00:52:54.543Z,89.70
2023-05-18T00:53:54.536Z,90.41
2023-05-18T00:54:54.519Z,89.70
2023-05-18T00:55:54.513Z,89.75
2023-05-18T00:56:54.509Z,89.91
2023-05-18T00:57:54.491Z,89.99
2023-05-18T00:58:54.489Z,89.70
2023-05-18T00:59:54.469Z,90.47
2023-05-18T01:00:54.555Z,90.57
2023-05-18T01:01:54.495Z,90.10
2023-05-18T01:02:54.580Z,89.93
2023-05-18T01:03:54.428Z,90.06
2023-05-18T01:04:54.414Z,91.01
2023-05-18T01:05:54.405Z,89.93
2023-05-18T01:06:54.394Z,90.82
2023-05-18T01:07:54.387Z,90.80
2023-05-18T01:08:54.376Z,89.91
2023-05-18T01:09:54.366Z,90.88
2023-05-18T01:10:54.373Z,90.03
2023-05-18T01:11:54.346Z,90.93
2023-05-18T01:12:54.333Z,90.22
2023-05-18T01:13:54.324Z,89.97
2023-05-18T01:14:54.314Z,89.95
2023-05-18T01:15:54.306Z,90.30
2023-05-18T01:16:54.358Z,90.93
2023-05-18T01:17:54.350Z,90.88
2023-05-18T01:18:54.289Z,90.86
2023-05-18T01:19:54.263Z,90.72
2023-05-18T01:20:54.249Z,89.99
2023-05-18T01:21:54.243Z,90.41
2023-05-18T01:22:54.231Z,89.95
2023-05-18T01:23:54.222Z,89.87
2023-05-18T01:24:54.210Z,89.87
2023-05-18T01:27:10.370Z,90.41
2023-05-18T01:28:10.370Z,90.78
2023-05-18T01:29:10.345Z,90.47
2023-05-18T01:30:10.341Z,90.61
2023-05-18T01:31:10.383Z,91.34
2023-05-18T01:32:10.341Z,91.24
2023-05-18T01:33:10.381Z,91.13
2023-05-18T01:34:10.304Z,91.96
2023-05-18T01:35:10.293Z,91.55
2023-05-18T01:36:10.279Z,91.65
2023-05-18T01:37:10.268Z,91.18
2023-05-18T01:38:10.264Z,90.03
2023-05-18T01:39:10.248Z,91.07
2023-05-18T01:40:10.243Z,89.95
2023-05-18T01:41:10.229Z,89.95
2023-05-18T01:42:10.221Z,90.78
2023-05-18T01:43:10.209Z,90.88
2023-05-18T01:44:10.199Z,91.19
2023-05-18T01:45:10.193Z,91.18
2023-05-18T01:46:10.223Z,91.13
2023-05-18T01:47:10.170Z,91.24
2023-05-18T01:48:10.208Z,91.43
2023-05-18T01:49:10.148Z,92.38
2023-05-18T01:50:10.144Z,92.13
2023-05-18T01:51:10.126Z,92.79
2023-05-18T01:52:10.122Z,93.39
2023-05-18T01:53:10.112Z,93.56
2023-05-18T01:54:10.113Z,93.60
2023-05-18T01:55:10.109Z,94.22
2023-05-18T01:56:10.094Z,94.32
2023-05-18T01:57:10.064Z,94.32
2023-05-18T01:58:10.069Z,94.14
2023-05-18T01:59:10.060Z,94.43
2023-05-18T02:00:10.034Z,94.73
2023-05-18T02:01:10.030Z,94.59
2023-05-18T02:02:10.096Z,94.67
2023-05-18T02:03:10.108Z,94.59
2023-05-18T02:04:10.103Z,94.89
2023-05-18T02:05:09.985Z,94.84
2023-05-18T02:06:09.987Z,95.05
2023-05-18T02:07:09.977Z,95.36
2023-05-18T02:08:09.955Z,94.74
2023-05-18T02:09:09.960Z,94.22
2023-05-18T02:10:09.934Z,94.39
2023-05-18T02:11:09.922Z,94.89
2023-05-18T02:12:09.918Z,94.68
2023-05-18T02:13:09.897Z,94.07
2023-05-18T02:14:09.892Z,94.12
2023-05-18T02:15:09.889Z,94.58
2023-05-18T02:16:09.898Z,94.78
2023-05-18T02:17:09.857Z,94.53
2023-05-18T02:18:09.895Z,94.30
2023-05-18T02:19:09.880Z,94.22
2023-05-18T02:20:09.859Z,94.32
2023-05-18T02:21:09.820Z,94.12
2023-05-18T02:22:09.817Z,94.01
2023-05-18T02:23:09.800Z,94.43
2023-05-18T02:24:09.788Z,94.25
2023-05-18T02:25:09.780Z,94.11
2023-05-18T02:26:09.769Z,94.28
2023-05-18T02:27:09.767Z,94.22
2023-05-18T02:28:09.781Z,94.22
2023-05-18T02:29:09.748Z,93.87
2023-05-18T02:30:09.727Z,94.28
2023-05-18T02:31:09.719Z,94.42
2023-05-18T02:32:09.759Z,94.42
2023-05-18T02:33:09.713Z,94.37
2023-05-18T02:34:09.684Z,94.98
2023-05-18T02:35:09.671Z,95.50
2023-05-18T02:36:09.706Z,95.91
2023-05-18T02:37:09.649Z,96.39
2023-05-18T02:38:09.647Z,96.70
2023-05-18T02:39:09.630Z,96.96
2023-05-18T02:40:09.625Z,97.05
2023-05-18T02:41:09.609Z,97.10
2023-05-18T02:42:09.605Z,97.72
2023-05-18T02:43:09.593Z,97.53
2023-05-18T02:44:09.581Z,97.47
2023-05-18T02:45:09.583Z,97.47
2023-05-18T02:46:09.603Z,97.43
2023-05-18T02:47:09.552Z,97.32
2023-05-18T02:48:09.600Z,97.87
2023-05-18T02:49:09.535Z,97.82
2023-05-18T02:50:09.522Z,98.05
2023-05-18T02:51:09.513Z,98.19
2023-05-18T02:52:09.532Z,98.21
2023-05-18T02:53:09.493Z,98.76
2023-05-18T02:54:09.483Z,99.02
2023-05-18T02:55:09.475Z,99.19
2023-05-18T02:56:09.470Z,99.13
2023-05-18T02:57:09.463Z,99.13
2023-05-18T02:58:09.444Z,99.10
2023-05-18T02:59:09.432Z,99.22
2023-05-18T03:00:09.430Z,99.34
2023-05-18T03:01:09.450Z,99.50
2023-05-18T03:02:09.459Z,99.99
2023-05-18T03:03:09.509Z,99.99
2023-05-18T03:04:09.381Z,99.99
2023-05-18T03:05:09.382Z,99.92
2023-05-18T03:06:09.375Z,99.99
2023-05-18T03:07:09.352Z,99.99
2023-05-18T03:08:09.359Z,99.99
2023-05-18T03:09:09.336Z,99.85
2023-05-18T03:10:09.327Z,99.96
2023-05-18T03:11:09.320Z,99.92
2023-05-18T03:12:09.301Z,99.85
2023-05-18T03:13:09.289Z,99.85
2023-05-18T03:14:09.284Z,99.74
2023-05-18T03:15:09.279Z,99.34
2023-05-18T03:16:09.263Z,99.38
2023-05-18T03:17:09.276Z,99.59
2023-05-18T03:18:09.305Z,99.40
2023-05-18T03:19:09.322Z,99.53
2023-05-18T03:20:09.217Z,99.60
2023-05-18T03:21:09.204Z,99.92
2023-05-18T03:22:09.205Z,99.80
2023-05-18T03:23:09.187Z,99.85
2023-05-18T03:24:09.282Z,99.99
2023-05-18T03:25:09.186Z,99.90
2023-05-18T03:26:09.157Z,99.99
2023-05-18T03:27:09.149Z,99.81
2023-05-18T03:28:09.140Z,99.66
2023-05-18T03:29:09.141Z,99.76
2023-05-18T03:30:09.135Z,99.84
2023-05-18T03:31:09.121Z,99.80
2023-05-18T03:32:09.100Z,99.95
2023-05-18T03:33:09.167Z,99.99
2023-05-18T03:34:09.078Z,99.99
2023-05-18T03:35:09.069Z,99.99
2023-05-18T03:36:09.055Z,99.99
2023-05-18T03:37:09.055Z,99.99
2023-05-18T03:38:09.039Z,99.99
2023-05-18T03:39:09.026Z,99.99
2023-05-18T03:40:09.063Z,99.99
2023-05-18T03:41:09.009Z,99.99
2023-05-18T03:42:08.995Z,99.99
2023-05-18T03:43:08.990Z,99.99
2023-05-18T03:44:08.998Z,99.99
2023-05-18T03:45:08.974Z,99.99
2023-05-18T03:46:08.977Z,99.99
2023-05-18T03:47:08.946Z,99.99
2023-05-18T03:48:08.945Z,99.99
2023-05-18T03:49:08.959Z,99.99
2023-05-18T03:50:08.958Z,99.99
2023-05-18T03:51:08.915Z,99.99
2023-05-18T03:52:08.896Z,99.99
2023-05-18T03:53:08.888Z,99.99
2023-05-18T03:54:08.875Z,99.99
2023-05-18T03:55:08.866Z,99.99
2023-05-18T03:56:08.880Z,99.99
2023-05-18T03:57:08.864Z,99.99
2023-05-18T03:58:08.832Z,99.99
2023-05-18T03:59:08.824Z,99.99
2023-05-18T04:00:08.823Z,99.99
2023-05-18T04:01:08.801Z,99.99
2023-05-18T04:02:08.948Z,99.99
2023-05-18T04:03:08.889Z,99.99
2023-05-18T04:04:08.862Z,99.99
2023-05-18T04:05:08.782Z,99.99
2023-05-18T04:06:08.752Z,99.99
2023-05-18T04:07:08.742Z,99.99
2023-05-18T04:08:08.726Z,99.99
2023-05-18T04:09:08.728Z,99.92
2023-05-18T04:10:08.711Z,99.71
2023-05-18T04:11:08.699Z,99.50
2023-05-18T04:12:08.721Z,99.44
2023-05-18T04:13:08.686Z,99.20
2023-05-18T04:14:08.677Z,99.23
2023-05-18T04:15:08.663Z,98.88
2023-05-18T04:16:08.719Z,98.88
2023-05-18T04:17:08.641Z,98.62
2023-05-18T04:18:08.725Z,98.65
2023-05-18T04:19:08.670Z,98.57
2023-05-18T04:20:08.608Z,98.36
2023-05-18T04:21:08.605Z,97.23
2023-05-18T04:22:08.592Z,96.82
2023-05-18T04:23:08.603Z,96.55
2023-05-18T04:24:08.572Z,96.13
2023-05-18T04:25:08.564Z,95.87
2023-05-18T04:26:08.549Z,95.15
2023-05-18T04:27:08.563Z,94.80
2023-05-18T04:28:08.609Z,94.89
2023-05-18T04:29:08.521Z,94.47
2023-05-18T04:30:08.510Z,94.18
2023-05-18T04:31:08.501Z,94.24
2023-05-18T04:32:08.712Z,94.07
2023-05-18T04:33:08.619Z,93.82
2023-05-18T04:34:08.467Z,93.45
2023-05-18T04:35:08.461Z,93.43
2023-05-18T04:36:08.452Z,92.79
2023-05-18T04:37:08.436Z,93.14
2023-05-18T04:38:08.426Z,91.49
2023-05-18T04:39:08.418Z,92.17
2023-05-18T04:40:08.417Z,92.21
2023-05-18T04:41:08.395Z,91.24
2023-05-18T04:42:08.390Z,92.07
2023-05-18T04:43:08.445Z,91.34
2023-05-18T04:44:08.479Z,91.05
2023-05-18T04:45:08.355Z,91.82
2023-05-18T04:46:08.384Z,91.30
2023-05-18T04:47:08.351Z,90.94
2023-05-18T04:48:08.338Z,90.88
2023-05-18T04:49:08.313Z,90.93
2023-05-18T04:50:08.323Z,89.91
2023-05-18T04:51:08.296Z,89.85
2023-05-18T04:52:08.283Z,89.11
2023-05-18T04:53:08.273Z,89.64
2023-05-18T04:54:08.261Z,89.29
2023-05-18T04:55:08.255Z,88.71
2023-05-18T04:56:08.247Z,89.75
2023-05-18T04:57:08.238Z,89.27
2023-05-18T04:58:08.222Z,89.08
2023-05-18T04:59:08.223Z,89.14
2023-05-18T05:00:08.221Z,88.38
2023-05-18T05:01:08.230Z,88.01
2023-05-18T05:02:08.233Z,87.95
2023-05-18T05:03:08.227Z,87.28
2023-05-18T05:04:08.156Z,87.47
2023-05-18T05:05:08.164Z,88.84
2023-05-18T05:06:08.141Z,87.14
2023-05-18T05:07:08.128Z,86.62
2023-05-18T05:08:08.113Z,86.75
2023-05-18T05:09:08.113Z,87.04
2023-05-18T05:10:08.112Z,86.83
2023-05-18T05:11:08.085Z,86.54
2023-05-18T05:12:08.073Z,85.82
2023-05-18T05:13:08.064Z,85.47
2023-05-18T05:14:08.055Z,85.82
2023-05-18T05:15:08.044Z,85.33
2023-05-18T05:16:08.097Z,85.06
2023-05-18T05:17:08.020Z,84.17
2023-05-18T05:18:08.075Z,84.03
2023-05-18T05:19:08.089Z,83.51
2023-05-18T05:20:07.990Z,83.82
2023-05-18T05:21:07.975Z,83.61
2023-05-18T05:22:07.991Z,81.92
2023-05-18T05:23:08.042Z,83.20
2023-05-18T05:24:07.947Z,83.41
2023-05-18T05:25:07.937Z,83.61
2023-05-18T05:26:07.933Z,83.82
2023-05-18T05:27:07.933Z,83.16
2023-05-18T05:28:07.909Z,82.69
2023-05-18T05:29:07.894Z,81.78
2023-05-18T05:30:07.891Z,81.54
2023-05-18T05:31:07.894Z,81.54
2023-05-18T05:32:07.880Z,80.89
2023-05-18T05:33:07.916Z,81.64
2023-05-18T05:34:07.849Z,80.33
2023-05-18T05:35:07.841Z,81.75
2023-05-18T05:36:07.835Z,81.22
2023-05-18T05:37:07.818Z,80.37
2023-05-18T05:38:07.808Z,80.30
2023-05-18T05:39:07.793Z,80.51
2023-05-18T05:40:07.787Z,81.33
2023-05-18T05:41:07.786Z,80.16
2023-05-18T05:42:07.761Z,79.10
2023-05-18T05:43:07.761Z,78.72
2023-05-18T05:44:07.741Z,79.68
2023-05-18T05:45:07.750Z,79.58
2023-05-18T05:46:07.723Z,77.55
2023-05-18T05:47:07.800Z,78.07
2023-05-18T05:48:07.889Z,77.75
2023-05-18T05:49:07.692Z,78.55
2023-05-18T05:50:07.714Z,77.86
2023-05-18T05:51:07.677Z,78.82
2023-05-18T05:52:07.668Z,77.79
2023-05-18T05:53:07.669Z,76.97
2023-05-18T05:54:09.979Z,77.99
2023-05-18T05:55:07.627Z,77.20
2023-05-18T05:56:07.622Z,76.89
2023-05-18T05:57:07.617Z,76.52
2023-05-18T05:58:07.611Z,75.73
2023-05-18T05:59:07.594Z,76.45
2023-05-18T06:00:07.582Z,76.48
2023-05-18T06:01:07.572Z,76.38
2023-05-18T06:02:07.616Z,76.31
2023-05-18T06:03:07.623Z,76.04
2023-05-18T06:04:07.757Z,75.90
2023-05-18T06:05:07.539Z,75.48
2023-05-18T06:06:07.517Z,74.84
2023-05-18T06:07:07.506Z,74.70
2023-05-18T06:08:07.498Z,73.46
2023-05-18T06:09:07.484Z,73.84
2023-05-18T06:10:07.477Z,72.17
2023-05-18T06:11:10.677Z,70.39
2023-05-18T06:12:07.481Z,69.70
2023-05-18T06:13:07.463Z,69.78
2023-05-18T06:14:07.431Z,68.07
2023-05-18T06:15:07.422Z,69.64
2023-05-18T06:16:07.436Z,68.38
2023-05-18T06:17:07.437Z,66.85
2023-05-18T06:18:07.429Z,65.28
2023-05-18T06:19:07.479Z,64.61
2023-05-18T06:20:07.415Z,64.84
2023-05-18T06:21:07.358Z,64.16
2023-05-18T06:22:07.356Z,63.61
2023-05-18T06:23:07.341Z,63.95
2023-05-18T06:24:07.380Z,63.72
2023-05-18T06:25:07.325Z,62.92
2023-05-18T06:26:07.311Z,64.33
2023-05-18T06:27:07.297Z,64.30
2023-05-18T06:28:07.289Z,63.64
2023-05-18T06:29:07.277Z,62.81
2023-05-18T06:30:07.283Z,60.56
2023-05-18T06:31:07.314Z,59.97
2023-05-18T06:32:07.350Z,59.38
2023-05-18T06:33:07.288Z,60.91
2023-05-18T06:34:07.228Z,59.58
2023-05-18T06:35:07.218Z,59.58
2023-05-18T06:36:07.235Z,58.28
2023-05-18T06:37:07.196Z,57.54
2023-05-18T06:38:07.188Z,59.31
2023-05-18T06:39:07.186Z,62.56
2023-05-18T06:40:07.174Z,61.71
2023-05-18T06:41:07.182Z,61.95
2023-05-18T06:42:07.154Z,62.39
2023-05-18T06:43:07.139Z,62.09
2023-05-18T06:44:07.126Z,60.97
2023-05-18T06:45:07.119Z,59.92
2023-05-18T06:46:07.137Z,59.66
2023-05-18T06:47:07.119Z,60.76
2023-05-18T06:48:07.140Z,59.74
2023-05-18T06:49:07.089Z,59.00
2023-05-18T06:50:07.062Z,60.91
2023-05-18T06:51:07.066Z,60.20
2023-05-18T06:52:07.072Z,62.82
2023-05-18T06:53:07.039Z,59.99
2023-05-18T06:54:07.030Z,59.99
2023-05-18T06:55:07.024Z,57.55
2023-05-18T06:56:07.006Z,58.92
2023-05-18T06:57:07.001Z,59.81
2023-05-18T06:58:06.994Z,57.56
2023-05-18T06:59:06.979Z,57.72
2023-05-18T07:00:06.969Z,56.11
2023-05-18T07:01:06.968Z,56.32
2023-05-18T07:02:06.947Z,56.90
2023-05-18T07:03:07.053Z,55.27
2023-05-18T07:04:07.000Z,55.35
2023-05-18T07:05:06.930Z,54.89
2023-05-18T07:06:06.915Z,53.90
2023-05-18T07:07:06.916Z,56.21
2023-05-18T07:08:06.956Z,55.65
2023-05-18T07:09:06.876Z,57.00
2023-05-18T07:10:06.864Z,54.41
2023-05-18T07:11:06.864Z,54.76
2023-05-18T07:12:06.845Z,54.69
2023-05-18T07:13:06.838Z,54.43
2023-05-18T07:14:06.827Z,55.24
2023-05-18T07:15:06.817Z,55.48
2023-05-18T07:16:06.868Z,56.54
2023-05-18T07:17:06.798Z,56.93
2023-05-18T07:18:06.889Z,56.64
2023-05-18T07:19:06.826Z,56.64
2023-05-18T07:20:06.773Z,57.05
2023-05-18T07:21:06.753Z,56.57
2023-05-18T07:22:06.749Z,56.82
2023-05-18T07:23:06.736Z,54.35
2023-05-18T07:24:06.750Z,53.26
2023-05-18T07:25:06.723Z,55.83
2023-05-18T07:26:06.705Z,55.07
2023-05-18T07:27:06.697Z,54.00
2023-05-18T07:28:06.701Z,54.33
2023-05-18T07:29:06.679Z,55.57
2023-05-18T07:30:06.669Z,52.86
2023-05-18T07:31:06.694Z,56.01
2023-05-18T07:32:06.651Z,54.61
2023-05-18T07:33:06.732Z,54.94
2023-05-18T07:34:06.622Z,53.77
2023-05-18T07:35:06.626Z,52.63
2023-05-18T07:36:06.622Z,52.45
2023-05-18T07:37:06.598Z,53.57
2023-05-18T07:38:06.598Z,53.36
2023-05-18T07:39:06.578Z,55.96
2023-05-18T07:40:06.592Z,55.71
2023-05-18T07:41:06.559Z,56.16
2023-05-18T07:42:06.548Z,55.45
2023-05-18T07:43:06.538Z,56.09
2023-05-18T07:44:06.532Z,56.39
2023-05-18T07:45:06.518Z,55.07
2023-05-18T07:46:06.516Z,56.98
2023-05-18T07:47:06.566Z,54.71
2023-05-18T07:48:06.518Z,58.02
2023-05-18T07:49:06.478Z,55.37
2023-05-18T07:50:06.467Z,56.82
2023-05-18T07:51:06.454Z,55.42
2023-05-18T07:52:06.449Z,54.84
2023-05-18T07:53:06.434Z,54.63
2023-05-18T07:54:06.436Z,52.45
2023-05-18T07:55:06.415Z,53.95
2023-05-18T07:56:06.436Z,54.68
2023-05-18T07:57:06.396Z,51.21
2023-05-18T07:58:06.388Z,51.69
2023-05-18T07:59:06.377Z,50.65
2023-05-18T08:00:06.386Z,51.09
2023-05-18T08:01:06.368Z,51.26
2023-05-18T08:02:06.383Z,49.97
2023-05-18T08:03:06.379Z,50.83
2023-05-18T08:04:06.458Z,51.80
2023-05-18T08:05:06.321Z,50.15
2023-05-18T08:06:06.337Z,50.56
2023-05-18T08:07:06.297Z,50.60
2023-05-18T08:08:07.137Z,50.96
2023-05-18T08:09:06.277Z,48.71
2023-05-18T08:10:06.266Z,49.52
2023-05-18T08:11:06.256Z,49.97
2023-05-18T08:12:06.262Z,49.67
2023-05-18T08:13:06.236Z,50.88
2023-05-18T08:14:06.228Z,50.23
2023-05-18T08:15:06.214Z,48.08
2023-05-18T08:16:11.836Z,49.29
2023-05-18T08:17:07.288Z,48.38
2023-05-18T08:18:06.224Z,48.55
2023-05-18T08:19:06.217Z,48.96
2023-05-18T08:20:06.165Z,51.06
2023-05-18T08:21:06.156Z,50.33
2023-05-18T08:22:06.150Z,47.67
2023-05-18T08:23:06.147Z,49.27
2023-05-18T08:24:06.125Z,48.29
2023-05-18T08:25:06.117Z,48.13
2023-05-18T08:26:06.109Z,47.79
2023-05-18T08:27:06.095Z,45.72
2023-05-18T08:28:06.106Z,45.38
2023-05-18T08:29:06.079Z,47.65
2023-05-18T08:30:06.070Z,48.65
2023-05-18T08:31:06.056Z,46.94
2023-05-18T08:32:06.067Z,48.89
2023-05-18T08:33:06.062Z,49.84
2023-05-18T08:34:06.029Z,49.29
2023-05-18T08:35:06.033Z,48.05
2023-05-18T08:36:06.008Z,47.27
2023-05-18T08:37:05.990Z,48.36
2023-05-18T08:38:05.983Z,48.85
2023-05-18T08:39:05.992Z,48.21
2023-05-18T08:40:05.969Z,49.07
2023-05-18T08:41:05.959Z,52.30
2023-05-18T08:42:05.953Z,53.42
2023-05-18T08:43:06.020Z,50.65
2023-05-18T08:44:05.974Z,48.81
2023-05-18T08:45:05.911Z,47.66
2023-05-18T08:46:05.922Z,50.53
2023-05-18T08:47:05.896Z,49.28
2023-05-18T08:48:05.940Z,49.79
2023-05-18T08:49:06.146Z,50.93
2023-05-18T08:50:05.866Z,49.21
2023-05-18T08:51:05.850Z,48.25
2023-05-18T08:52:05.879Z,48.88
2023-05-18T08:53:05.829Z,50.73
2023-05-18T08:54:05.821Z,52.20
2023-05-18T08:55:05.828Z,51.03
2023-05-18T08:56:05.807Z,50.77
2023-05-18T08:57:05.795Z,51.40
2023-05-18T08:58:05.795Z,54.20
2023-05-18T08:59:05.780Z,52.53
2023-05-18T09:00:05.855Z,53.39
2023-05-18T09:01:05.786Z,51.69
2023-05-18T09:02:05.772Z,50.26
2023-05-18T09:03:05.765Z,49.29
2023-05-18T09:04:05.734Z,47.04
2023-05-18T09:05:05.727Z,48.59
2023-05-18T09:06:05.693Z,47.45
2023-05-18T09:07:05.678Z,48.84
2023-05-18T09:08:05.674Z,48.36
2023-05-18T09:09:05.660Z,47.24
2023-05-18T09:10:05.664Z,44.41
2023-05-18T09:11:05.640Z,45.34
2023-05-18T09:12:05.637Z,45.08
2023-05-18T09:13:05.620Z,46.35
2023-05-18T09:14:05.608Z,47.09
2023-05-18T09:15:05.609Z,47.25
2023-05-18T09:16:05.673Z,45.22
2023-05-18T09:17:05.582Z,44.67
2023-05-18T09:18:05.601Z,46.88
2023-05-18T09:19:05.581Z,48.72
2023-05-18T09:20:05.553Z,48.41
2023-05-18T09:21:05.538Z,49.04
2023-05-18T09:22:05.529Z,50.31
2023-05-18T09:23:05.518Z,48.49
2023-05-18T09:24:05.511Z,48.37
2023-05-18T09:25:05.500Z,48.47
2023-05-18T09:26:05.490Z,49.58
2023-05-18T09:27:05.482Z,46.45
2023-05-18T09:28:05.476Z,44.23
2023-05-18T09:29:05.462Z,46.90
2023-05-18T09:30:05.455Z,46.84
2023-05-18T09:31:05.453Z,47.58
2023-05-18T09:32:05.546Z,44.63
2023-05-18T09:33:05.461Z,44.75
2023-05-18T09:34:05.499Z,42.57
2023-05-18T09:35:05.414Z,43.32
2023-05-18T09:36:05.390Z,41.26
2023-05-18T09:37:05.383Z,43.58
2023-05-18T09:38:05.373Z,44.25
2023-05-18T09:39:05.364Z,44.58
2023-05-18T09:40:05.353Z,43.54
2023-05-18T09:41:05.341Z,45.58
2023-05-18T09:42:05.341Z,45.62
2023-05-18T09:43:05.316Z,46.53
2023-05-18T09:44:05.317Z,43.80
2023-05-18T09:45:05.291Z,45.62
2023-05-18T09:46:05.295Z,45.14
2023-05-18T09:47:05.393Z,42.90
2023-05-18T09:48:05.327Z,45.32
2023-05-18T09:49:05.257Z,45.86
2023-05-18T09:50:05.251Z,45.07
2023-05-18T09:51:05.235Z,45.08
2023-05-18T09:52:05.227Z,49.32
2023-05-18T09:53:05.216Z,46.21
2023-05-18T09:54:05.259Z,44.45
2023-05-18T09:55:05.229Z,46.93
2023-05-18T09:56:05.186Z,45.56
2023-05-18T09:58:05.167Z,43.78
2023-05-18T09:59:05.156Z,45.74
2023-05-18T10:00:05.146Z,44.33
2023-05-18T10:01:05.160Z,44.23
2023-05-18T10:02:05.141Z,44.73
2023-05-18T10:03:05.180Z,49.59
2023-05-18T10:04:05.235Z,50.07
2023-05-18T10:05:05.097Z,48.68
2023-05-18T10:06:05.089Z,45.73
2023-05-18T10:07:05.074Z,48.53
2023-05-18T10:08:05.068Z,46.38
2023-05-18T10:09:05.054Z,45.95
2023-05-18T10:10:07.150Z,48.54
2023-05-18T10:11:05.041Z,46.86
2023-05-18T10:12:05.024Z,45.02
2023-05-18T10:13:05.018Z,46.53
2023-05-18T10:14:05.007Z,46.13
2023-05-18T10:15:04.992Z,47.01
2023-05-18T10:16:04.982Z,44.75
2023-05-18T10:17:15.032Z,49.85
2023-05-18T10:18:06.028Z,49.22
2023-05-18T10:19:05.010Z,42.47
2023-05-18T10:20:05.070Z,45.57
2023-05-18T10:21:04.942Z,47.30
2023-05-18T10:22:04.920Z,45.00
2023-05-18T10:23:04.913Z,45.66
2023-05-18T10:24:04.904Z,44.98
2023-05-18T10:25:05.010Z,45.94
2023-05-18T10:26:04.882Z,47.46
2023-05-18T10:27:04.877Z,46.38
2023-05-18T10:28:04.862Z,48.28
2023-05-18T10:29:04.860Z,47.99
2023-05-18T10:30:04.840Z,49.66
2023-05-18T10:31:04.872Z,42.77
2023-05-18T10:32:07.542Z,44.06
2023-05-18T10:33:11.322Z,45.11
2023-05-18T10:34:05.829Z,47.46
2023-05-18T10:35:04.785Z,42.96
2023-05-18T10:36:04.811Z,46.45
2023-05-18T10:37:04.767Z,46.19
2023-05-18T10:38:04.762Z,44.39
2023-05-18T10:39:04.748Z,44.17
2023-05-18T10:40:04.745Z,44.69
2023-05-18T10:41:04.726Z,43.44
2023-05-18T10:42:04.717Z,47.83
2023-05-18T10:43:04.713Z,47.73
2023-05-18T10:44:04.705Z,46.41
2023-05-18T10:45:04.684Z,45.66
2023-05-18T10:46:04.779Z,44.51
2023-05-18T10:47:04.723Z,48.92
2023-05-18T10:48:04.671Z,49.01
2023-05-18T10:49:04.642Z,49.06
2023-05-18T10:50:04.641Z,50.15
2023-05-18T10:51:04.624Z,47.90
2023-05-18T10:52:04.647Z,47.97
2023-05-18T10:53:04.602Z,46.82
2023-05-18T10:54:04.593Z,45.97
2023-05-18T10:55:04.660Z,44.51
2023-05-18T10:56:04.581Z,41.11
2023-05-18T10:57:04.559Z,42.67
2023-05-18T10:58:04.556Z,45.46
2023-05-18T10:59:04.537Z,44.82
2023-05-18T11:00:04.530Z,43.24
2023-05-18T11:01:04.523Z,45.58
2023-05-18T11:02:04.555Z,44.43
2023-05-18T11:03:04.536Z,45.01
2023-05-18T11:04:04.490Z,42.11
2023-05-18T11:05:04.491Z,45.20
2023-05-18T11:06:04.475Z,49.02
2023-05-18T11:07:04.470Z,51.25
2023-05-18T11:08:04.486Z,48.41
2023-05-18T11:09:04.440Z,48.90
2023-05-18T11:10:04.424Z,45.86
2023-05-18T11:11:04.422Z,46.60
2023-05-18T11:12:04.406Z,46.83
2023-05-18T11:13:04.408Z,43.40
2023-05-18T11:14:04.384Z,44.54
2023-05-18T11:15:04.376Z,41.06
2023-05-18T11:16:04.412Z,44.03
2023-05-18T11:17:04.351Z,45.22
2023-05-18T11:18:04.362Z,41.72
2023-05-18T11:19:04.344Z,42.61
2023-05-18T11:20:04.332Z,42.21
2023-05-18T11:21:04.313Z,45.17
2023-05-18T11:22:04.306Z,41.02
2023-05-18T11:23:04.289Z,42.29
2023-05-18T11:24:04.303Z,43.56
2023-05-18T11:25:04.276Z,45.62
2023-05-18T11:26:04.261Z,41.79
2023-05-18T11:27:04.260Z,44.56
2023-05-18T11:28:04.252Z,44.42
2023-05-18T11:29:04.235Z,43.96
2023-05-18T11:30:15.215Z,46.12
2023-05-18T11:31:05.240Z,44.20
2023-05-18T11:32:05.277Z,47.28
2023-05-18T11:33:04.311Z,40.76
2023-05-18T11:34:04.183Z,44.11
2023-05-18T11:35:04.169Z,44.40
2023-05-18T11:36:04.159Z,41.14
2023-05-18T11:37:04.148Z,43.58
2023-05-18T11:38:04.142Z,44.85
2023-05-18T11:39:04.137Z,42.13
2023-05-18T11:41:04.114Z,48.30
2023-05-18T11:42:04.101Z,43.44
2023-05-18T11:43:04.089Z,43.18
2023-05-18T11:44:04.082Z,43.51
2023-05-18T11:45:04.074Z,42.53
2023-05-18T11:46:04.063Z,44.71
2023-05-18T11:47:04.049Z,41.46
2023-05-18T11:48:04.100Z,44.51
2023-05-18T11:49:04.112Z,44.24
2023-05-18T11:50:04.021Z,39.27
2023-05-18T11:51:04.003Z,44.32
2023-05-18T11:52:03.998Z,42.07
2023-05-18T11:53:03.986Z,44.71
2023-05-18T11:54:03.989Z,48.40
2023-05-18T11:55:03.966Z,44.67
2023-05-18T11:56:03.975Z,44.54
2023-05-18T11:57:03.962Z,43.92
2023-05-18T11:58:03.939Z,43.30
2023-05-18T11:59:03.937Z,43.96
2023-05-18T12:00:03.918Z,43.28
2023-05-18T12:01:03.913Z,44.67
2023-05-18T12:02:04.007Z,45.44
2023-05-18T12:03:04.454Z,43.96
2023-05-18T12:04:03.898Z,42.31
2023-05-18T12:05:03.861Z,42.09
2023-05-18T12:06:03.855Z,42.95
2023-05-18T12:07:03.841Z,42.84
2023-05-18T12:08:03.836Z,44.18
2023-05-18T12:09:03.905Z,41.77
2023-05-18T12:10:03.827Z,39.37
2023-05-18T12:11:03.803Z,40.96
2023-05-18T12:12:03.809Z,43.70
2023-05-18T12:13:03.791Z,41.87
2023-05-18T12:14:03.776Z,37.89
2023-05-18T12:15:03.759Z,40.18
2023-05-18T12:16:03.752Z,38.67
2023-05-18T12:17:03.821Z,40.99
2023-05-18T12:18:03.780Z,41.55
2023-05-18T12:19:03.785Z,42.85
2023-05-18T12:20:03.700Z,43.09
2023-05-18T12:21:03.714Z,42.07
2023-05-18T12:22:03.684Z,40.22
2023-05-18T12:23:03.679Z,39.72
2023-05-18T12:24:03.663Z,40.66
2023-05-18T12:25:03.663Z,41.22
2023-05-18T12:26:03.648Z,42.11
2023-05-18T12:27:04.976Z,40.93
2023-05-18T12:28:03.671Z,41.99
2023-05-18T12:29:03.611Z,37.58
2023-05-18T12:30:03.617Z,37.16
2023-05-18T12:31:03.606Z,38.32
2023-05-18T12:32:03.583Z,40.57
2023-05-18T12:33:03.676Z,38.97
2023-05-18T12:34:03.579Z,41.65
2023-05-18T12:35:03.558Z,39.19
2023-05-18T12:36:03.553Z,39.99
2023-05-18T12:37:03.528Z,42.29
2023-05-18T12:38:03.531Z,41.22
2023-05-18T12:39:03.509Z,42.01
2023-05-18T12:40:03.498Z,40.94
2023-05-18T12:41:03.485Z,41.10
2023-05-18T12:42:03.477Z,40.14
2023-05-18T12:43:03.472Z,39.09
2023-05-18T12:44:03.481Z,40.54
2023-05-18T12:45:05.752Z,42.51
2023-05-18T12:46:03.509Z,41.85
2023-05-18T12:47:03.427Z,38.76
2023-05-18T12:48:03.453Z,39.43
2023-05-18T12:49:03.416Z,41.10
2023-05-18T12:50:03.403Z,43.70
2023-05-18T12:51:03.387Z,45.07
2023-05-18T12:52:03.392Z,43.01
2023-05-18T12:53:03.368Z,41.02
2023-05-18T12:54:03.365Z,40.82
2023-05-18T12:55:03.348Z,43.56
2023-05-18T12:56:03.329Z,40.22